Aérodrome :
LOGIN :

S'inscrire | Disclaimer

   EN    FR    IT 

 










Légende :    VFR   VFR Marginal   IFR   IFR Intensif   IFR Très Intensif
Visi : 
Plafond : 
>= 8 km
>= 3000ft
5 à 8 km
1000 à 3000 ft
1500m à 5 km
500 à 1000 ft
800 à 1500m
200 à 500 ft
< 800m
< 200 ft
Symboles :   Orages  Brouillard  Fortes neiges  Fortes précipitations  Vent > 20 kt
SIGMETs :   Divers  Orages  Givrage  Turbulence  Onde Orograph.  Cendres Volcan.







- Altitude de l'aérodrome : 52 ft
- Code IATA : RNN


EKRN - Bornholm Ronne

DERNIER METAR :
  • 181150Z AUTO 11011KT 9999NDV FEW033/// BKN044/// 03/M02 Q1026

METARs EXPIRÉS :
  • 181120Z AUTO 12011KT 9999NDV SCT026/// BKN034/// 03/M01 Q1026
  • 181050Z AUTO 12009KT 9999NDV OVC025/// 03/M01 Q1026
  • 181020Z AUTO 12009KT 9999NDV OVC019/// 03/M00 Q1026
  • 180950Z AUTO 12008KT 9999NDV OVC020/// 03/M01 Q1026
  • 180920Z AUTO 13008KT 9999NDV OVC015/// 03/M01 Q1026

TAF TAF EKRN
Valide du 18 à 12h jusqu'au 18 à 21h UTC


181122Z 1812/1821 13008KT 9999 BKN020
TEMPO 1814/1816 4000 BR BKN008
BECMG 1816/1818 1200 BR BKN002
TEMPO 1818/1821 5000 NSW BKN012
Pas de NOTAMs connus pour ce terrain.



MET'MAP, la Météo Aéronautique d'un coup d'oeil ! - Copyright ORBIFLY Décembre 2007 - Disclaimer

ORBIFLY MET'MAP TEAM :

Programmation & Développement : Alexandra Zaïnal
Conception & Développement : Baudouin d'Aumeries
Co-Programmation & Développement : Marc-Olivier Méhu
Soutien technique & logistique : Manuel Goepfert

Contact : metmap@orbifly.com




SOURCES & CREDITS :

   NOAA